Time;durP1;ratioP1;P1;durP2;ratioP2;P2;SDS_P1;SDS_P2;PMS_P1;PMS_P2;Temp;Humidity;BMP_temperature;BMP_pressure;BME280_temperature;BME280_humidity;BME280_pressure;Samples;Min_cycle;Max_cycle;Signal;HPM_P1;HPM_P2
2022/03/25 00:02:15;;;;;;;18.98;7.90;;;;;;;11.51;25.75;96530.66;5116173;28;20431;-67
2022/03/25 00:04:40;;;;;;;16.80;7.25;;;;;;;11.52;25.67;96532.38;5115277;28;20028;-67
2022/03/25 00:07:07;;;;;;;18.42;7.60;;;;;;;11.54;25.78;96535.78;5116145;28;20394;-67
2022/03/25 00:09:33;;;;;;;13.18;7.55;;;;;;;11.45;25.98;96530.94;5116142;28;20035;-68
2022/03/25 00:11:59;;;;;;;15.05;7.40;;;;;;;11.39;26.43;96524.19;5116037;28;20027;-67
2022/03/25 00:14:24;;;;;;;15.52;7.95;;;;;;;11.37;26.28;96519.00;5115985;28;20034;-68
2022/03/25 00:16:50;;;;;;;13.63;7.47;;;;;;;11.31;26.61;96513.16;5115919;28;20023;-67
2022/03/25 00:19:16;;;;;;;12.68;6.97;;;;;;;11.27;26.59;96508.97;5115916;28;20015;-67
2022/03/25 00:21:42;;;;;;;18.65;8.48;;;;;;;11.18;26.68;96511.06;5115793;28;20469;-67
2022/03/25 00:24:08;;;;;;;12.82;7.68;;;;;;;11.13;26.84;96510.38;5115910;28;20022;-67
2022/03/25 00:26:34;;;;;;;12.35;7.05;;;;;;;11.13;27.04;96520.84;5115879;28;20096;-67
2022/03/25 00:28:59;;;;;;;14.27;8.25;;;;;;;11.06;26.98;96514.16;5115717;28;20466;-67
2022/03/25 00:31:25;;;;;;;15.77;7.55;;;;;;;10.95;27.25;96528.53;5115694;28;20020;-67
2022/03/25 00:33:51;;;;;;;17.15;7.85;;;;;;;10.96;27.35;96539.88;5115586;27;20042;-67
2022/03/25 00:36:18;;;;;;;12.85;7.75;;;;;;;10.98;27.30;96540.63;5115399;28;20023;-67
2022/03/25 00:38:46;;;;;;;15.90;7.38;;;;;;;10.94;27.22;96545.16;5115378;28;20026;-67
2022/03/25 00:41:12;;;;;;;11.35;7.28;;;;;;;10.84;27.64;96541.22;5115259;28;20047;-67
2022/03/25 00:43:42;;;;;;;16.05;8.85;;;;;;;10.72;27.61;96535.53;5115504;28;20024;-67
2022/03/25 00:46:09;;;;;;;14.85;8.20;;;;;;;10.66;27.97;96535.78;5115436;28;20492;-67
2022/03/25 00:48:34;;;;;;;23.75;8.07;;;;;;;10.60;27.99;96542.06;5115250;27;20023;-67
2022/03/25 00:51:00;;;;;;;19.08;8.43;;;;;;;10.49;28.26;96534.66;5115157;28;20068;-67
2022/03/25 00:53:26;;;;;;;12.77;8.32;;;;;;;10.47;28.67;96548.69;5115150;28;20020;-67
2022/03/25 00:55:52;;;;;;;25.35;8.18;;;;;;;10.40;28.69;96561.09;5115302;28;20019;-67
2022/03/25 00:58:18;;;;;;;11.65;7.85;;;;;;;10.36;28.76;96556.91;5115199;28;20027;-68
2022/03/25 01:00:44;;;;;;;16.23;8.65;;;;;;;10.30;28.73;96557.13;5115101;28;20023;-67
2022/03/25 01:03:11;;;;;;;20.88;9.05;;;;;;;10.30;29.20;96565.81;5115128;28;20016;-67
2022/03/25 01:05:37;;;;;;;17.10;8.75;;;;;;;10.25;29.12;96557.28;5114916;28;20020;-67
2022/03/25 01:08:04;;;;;;;17.13;9.52;;;;;;;10.16;29.11;96562.84;5114878;28;20020;-67
2022/03/25 01:10:31;;;;;;;18.65;8.57;;;;;;;10.10;29.30;96564.78;5114976;28;20043;-67
2022/03/25 01:12:57;;;;;;;19.27;9.13;;;;;;;10.05;29.53;96548.41;5114708;28;20035;-67
2022/03/25 01:15:23;;;;;;;17.15;8.75;;;;;;;10.08;29.41;96561.38;5113661;28;20020;-67
2022/03/25 01:17:48;;;;;;;16.15;8.48;;;;;;;10.01;29.61;96561.63;5114657;28;20377;-67
2022/03/25 01:20:14;;;;;;;21.02;8.98;;;;;;;9.98;29.55;96555.63;5114737;28;20020;-68
2022/03/25 01:22:39;;;;;;;14.80;8.68;;;;;;;9.96;29.93;96554.81;5114676;28;20023;-67
2022/03/25 01:25:08;;;;;;;20.70;9.98;;;;;;;9.92;29.81;96557.59;5114560;28;20051;-67
2022/03/25 01:27:34;;;;;;;17.48;9.43;;;;;;;9.84;29.83;96544.78;5114518;28;20469;-67
2022/03/25 01:29:59;;;;;;;21.63;9.63;;;;;;;9.86;29.99;96574.34;5114540;28;20035;-67
2022/03/25 01:32:25;;;;;;;16.10;8.90;;;;;;;9.90;29.87;96562.03;5114528;28;20485;-67
2022/03/25 01:34:51;;;;;;;15.43;8.68;;;;;;;9.85;30.12;96565.63;5114323;28;20024;-67
2022/03/25 01:37:17;;;;;;;19.65;8.55;;;;;;;9.85;29.96;96565.63;5114204;28;20042;-67
2022/03/25 01:39:43;;;;;;;17.67;9.18;;;;;;;9.82;30.68;96567.50;5114080;28;20036;-67
2022/03/25 01:42:10;;;;;;;16.67;9.50;;;;;;;9.73;30.20;96574.75;5114246;28;20381;-67
2022/03/25 01:44:36;;;;;;;19.77;9.25;;;;;;;9.69;30.74;96569.72;5114162;28;20564;-67
2022/03/25 01:47:02;;;;;;;19.13;9.52;;;;;;;9.65;30.55;96579.41;5114095;28;20032;-67
2022/03/25 01:49:27;;;;;;;17.50;9.20;;;;;;;9.59;30.77;96585.69;5114174;28;20369;-67
2022/03/25 01:51:56;;;;;;;15.50;9.70;;;;;;;9.54;30.81;96589.34;5114090;28;20063;-67
2022/03/25 01:54:25;;;;;;;20.45;9.18;;;;;;;9.48;31.38;96588.63;5113964;28;20091;-67
2022/03/25 01:56:56;;;;;;;20.27;9.07;;;;;;;9.39;30.93;96588.94;5113884;28;20023;-67
2022/03/25 01:59:23;;;;;;;23.10;9.40;;;;;;;9.33;31.15;96584.78;5114034;28;20031;-67
2022/03/25 02:01:50;;;;;;;20.98;9.07;;;;;;;9.34;31.26;96575.19;5113962;28;20097;-67
2022/03/25 02:04:16;;;;;;;27.73;9.57;;;;;;;9.31;31.19;96570.06;5114063;28;20023;-66
2022/03/25 02:06:42;;;;;;;14.80;9.00;;;;;;;9.21;31.18;96569.50;5113846;28;20451;-66
2022/03/25 02:09:08;;;;;;;31.52;10.70;;;;;;;9.14;31.43;96568.84;5113846;28;20118;-67
2022/03/25 02:11:35;;;;;;;22.02;10.82;;;;;;;9.09;31.60;96578.56;5113940;28;20119;-67
2022/03/25 02:14:02;;;;;;;14.05;9.02;;;;;;;8.97;31.78;96585.00;5113724;28;20385;-67
2022/03/25 02:16:45;;;;;;;18.80;9.38;;;;;;;8.94;32.13;96582.53;5113556;28;20500;-67
2022/03/25 02:19:18;;;;;;;25.00;9.75;;;;;;;8.80;32.47;96589.03;5113839;28;20110;-67
2022/03/25 02:21:48;;;;;;;17.27;9.63;;;;;;;8.63;32.57;96591.25;5113736;28;20024;-67
2022/03/25 02:24:14;;;;;;;17.42;9.02;;;;;;;8.51;32.59;96588.09;5113682;28;20032;-67
2022/03/25 02:26:40;;;;;;;19.38;9.48;;;;;;;8.51;32.65;96598.50;5113257;28;20162;-67
2022/03/25 02:29:07;;;;;;;16.27;9.73;;;;;;;8.53;32.40;96595.88;5113520;28;20015;-67
2022/03/25 02:31:33;;;;;;;17.60;9.63;;;;;;;8.56;32.41;96604.50;5113568;28;20044;-67
2022/03/25 02:34:05;;;;;;;16.05;8.60;;;;;;;8.57;32.25;96624.44;5113637;28;20058;-67
2022/03/25 02:36:37;;;;;;;18.63;7.82;;;;;;;8.44;32.68;96616.09;5113577;28;20358;-67
2022/03/25 02:39:07;;;;;;;13.00;8.75;;;;;;;8.33;32.87;96616.38;5113493;28;20373;-67
2022/03/25 02:41:33;;;;;;;22.17;9.18;;;;;;;8.18;32.92;96606.38;5113342;28;20051;-67
2022/03/25 02:44:01;;;;;;;17.80;7.18;;;;;;;8.09;33.30;96615.28;5113491;28;20073;-67
2022/03/25 02:46:27;;;;;;;14.35;8.63;;;;;;;7.91;33.35;96614.03;5113612;28;20028;-67
2022/03/25 02:48:53;;;;;;;20.17;9.50;;;;;;;7.93;33.59;96617.47;5113500;28;20016;-67
2022/03/25 02:51:19;;;;;;;19.40;8.52;;;;;;;7.93;33.73;96620.06;5113362;28;20028;-67
2022/03/25 02:53:45;;;;;;;18.83;9.18;;;;;;;7.88;34.01;96620.19;5113286;28;20016;-67
2022/03/25 02:56:11;;;;;;;15.38;8.98;;;;;;;7.86;33.93;96628.94;5113217;28;20504;-67
2022/03/25 02:58:37;;;;;;;14.50;8.50;;;;;;;7.73;34.06;96616.22;5113258;28;20062;-67
2022/03/25 03:01:03;;;;;;;27.98;8.57;;;;;;;7.64;34.14;96621.66;5113289;28;20063;-67
2022/03/25 03:03:29;;;;;;;22.92;8.63;;;;;;;7.57;34.43;96620.97;5113243;28;20020;-67
2022/03/25 03:05:55;;;;;;;17.02;8.13;;;;;;;7.52;34.46;96626.28;5113160;28;20015;-67
2022/03/25 03:08:21;;;;;;;16.27;8.73;;;;;;;7.52;34.91;96628.88;5113260;28;20043;-67
2022/03/25 03:10:47;;;;;;;18.77;8.40;;;;;;;7.52;34.69;96626.28;5113273;28;20477;-67
2022/03/25 03:13:13;;;;;;;22.58;11.43;;;;;;;7.50;34.96;96633.28;5113243;28;20031;-67
2022/03/25 03:15:39;;;;;;;15.05;8.55;;;;;;;7.45;35.06;96629.94;5113048;28;20016;-67
2022/03/25 03:18:06;;;;;;;17.45;10.23;;;;;;;7.15;35.67;96629.75;5112962;28;20028;-67
2022/03/25 03:20:31;;;;;;;16.85;10.95;;;;;;;7.02;35.99;96632.66;5113119;28;20042;-67
2022/03/25 03:22:57;;;;;;;21.60;11.23;;;;;;;6.92;36.33;96626.78;5113106;28;20027;-67
2022/03/25 03:25:24;;;;;;;16.25;8.98;;;;;;;6.80;36.68;96617.50;5113167;28;20465;-67
2022/03/25 03:27:50;;;;;;;18.33;8.68;;;;;;;6.52;37.10;96614.63;5113039;28;20020;-67
2022/03/25 03:30:15;;;;;;;18.52;8.65;;;;;;;6.26;37.86;96611.66;5112940;28;20107;-67
2022/03/25 03:32:41;;;;;;;17.52;8.30;;;;;;;6.07;37.94;96612.03;5113011;28;20020;-67
2022/03/25 03:35:08;;;;;;;15.93;7.82;;;;;;;5.77;38.74;96600.41;5113045;28;20437;-68
2022/03/25 03:37:45;;;;;;;12.07;7.15;;;;;;;5.46;39.22;96607.00;5112939;28;20023;-68
2022/03/25 03:40:12;;;;;;;23.90;9.73;;;;;;;5.29;40.30;96620.22;5116096;28;20044;-67
2022/03/25 03:42:38;;;;;;;15.60;9.93;;;;;;;5.12;40.96;96616.16;5116549;28;20038;-67
2022/03/25 03:45:06;;;;;;;18.13;7.20;;;;;;;5.03;41.38;96626.69;5116571;28;20427;-67
2022/03/25 03:47:32;;;;;;;10.85;6.93;;;;;;;4.82;41.49;96627.84;5116537;28;20030;-67
2022/03/25 03:49:58;;;;;;;9.73;7.20;;;;;;;4.46;42.02;96625.72;5116518;28;20028;-67
2022/03/25 03:52:25;;;;;;;13.27;7.90;;;;;;;4.30;42.74;96633.66;5116475;28;20029;-67
2022/03/25 03:54:51;;;;;;;15.15;7.60;;;;;;;4.07;43.08;96631.31;5116480;28;20028;-67
2022/03/25 03:57:16;;;;;;;17.80;7.68;;;;;;;4.03;43.52;96646.00;5116347;28;20023;-67
2022/03/25 03:59:42;;;;;;;16.30;7.38;;;;;;;4.00;43.75;96653.84;5116409;27;20015;-67
2022/03/25 04:02:07;;;;;;;16.92;8.40;;;;;;;3.91;44.05;96650.44;5116204;28;20015;-67
2022/03/25 04:04:34;;;;;;;12.88;7.60;;;;;;;3.87;44.77;96658.25;5116085;28;20051;-67
2022/03/25 04:07:00;;;;;;;14.68;6.82;;;;;;;3.62;44.25;96654.19;5116260;28;20031;-67
2022/03/25 04:09:26;;;;;;;14.60;7.53;;;;;;;3.42;44.66;96649.16;5116091;28;20036;-67
2022/03/25 04:11:53;;;;;;;16.50;7.60;;;;;;;3.36;45.24;96651.78;5116041;28;20023;-67
2022/03/25 04:14:19;;;;;;;12.45;7.40;;;;;;;3.41;45.53;96650.88;5116023;28;20024;-67
2022/03/25 04:16:45;;;;;;;13.18;7.40;;;;;;;3.20;45.86;96654.50;5115798;28;20472;-68
2022/03/25 04:19:10;;;;;;;11.32;6.65;;;;;;;2.95;45.74;96646.03;5115779;28;20115;-67
2022/03/25 04:21:36;;;;;;;16.52;7.47;;;;;;;2.94;46.69;96646.88;5115901;28;20492;-67
2022/03/25 04:24:02;;;;;;;15.50;7.53;;;;;;;3.00;46.60;96646.84;5115829;28;20020;-67
2022/03/25 04:26:27;;;;;;;22.85;7.80;;;;;;;3.08;46.56;96644.22;5115869;28;20020;-67
2022/03/25 04:28:53;;;;;;;13.57;7.60;;;;;;;3.21;46.16;96643.28;5115633;28;20031;-67
2022/03/25 04:31:19;;;;;;;15.93;7.60;;;;;;;3.35;45.77;96644.91;5115633;28;20026;-67
2022/03/25 04:33:45;;;;;;;15.52;7.70;;;;;;;3.37;45.71;96653.53;5115657;28;20059;-67
2022/03/25 04:36:11;;;;;;;22.40;7.97;;;;;;;3.46;45.52;96650.00;5115554;28;20054;-67
2022/03/25 04:38:37;;;;;;;20.35;7.88;;;;;;;3.43;45.24;96648.28;5115517;28;20099;-67
2022/03/25 04:41:03;;;;;;;14.68;8.60;;;;;;;3.45;45.24;96656.03;5115263;28;20088;-67
2022/03/25 04:43:29;;;;;;;23.20;9.38;;;;;;;3.48;45.52;96663.75;5115546;28;20024;-67
2022/03/25 04:45:55;;;;;;;20.40;11.68;;;;;;;3.60;45.53;96667.97;5115414;28;20368;-67
2022/03/25 04:48:20;;;;;;;14.48;9.15;;;;;;;3.61;45.87;96667.97;5115428;28;20366;-67
2022/03/25 04:50:46;;;;;;;15.45;8.77;;;;;;;3.73;45.57;96669.59;5115136;28;20073;-67
2022/03/25 04:53:12;;;;;;;18.70;8.88;;;;;;;3.88;45.35;96673.78;5115192;28;20061;-67
2022/03/25 04:55:38;;;;;;;17.52;8.52;;;;;;;4.25;44.34;96672.53;5115106;28;20469;-67
2022/03/25 04:58:04;;;;;;;14.88;10.48;;;;;;;4.84;43.53;96664.97;5115043;28;20035;-67
2022/03/25 05:00:32;;;;;;;14.52;8.38;;;;;;;5.52;42.80;96669.19;5115090;28;20028;-67
2022/03/25 05:02:58;;;;;;;11.98;7.47;;;;;;;6.20;40.77;96663.72;5115046;28;20031;-67
2022/03/25 05:05:25;;;;;;;13.50;9.00;;;;;;;6.86;40.18;96662.47;5114991;28;20032;-67
2022/03/25 05:07:50;;;;;;;18.92;7.30;;;;;;;7.42;38.27;96667.31;5114974;28;20028;-67
2022/03/25 05:10:16;;;;;;;15.40;7.97;;;;;;;7.94;37.04;96673.88;5114919;28;20055;-67
2022/03/25 05:12:43;;;;;;;14.30;8.27;;;;;;;8.50;36.55;96663.72;5114671;28;20377;-67
2022/03/25 05:15:10;;;;;;;12.10;7.65;;;;;;;9.16;36.27;96670.59;5113520;28;20024;-67
2022/03/25 05:17:44;;;;;;;13.82;7.95;;;;;;;9.85;34.77;96666.69;5114768;27;20489;-67
2022/03/25 05:20:10;;;;;;;16.63;8.10;;;;;;;10.42;32.86;96668.28;5114715;27;20027;-67
2022/03/25 05:22:35;;;;;;;22.27;7.90;;;;;;;10.96;31.27;96666.34;5114776;28;20492;-67
2022/03/25 05:25:06;;;;;;;13.55;7.10;;;;;;;11.60;31.27;96673.53;5114625;28;20024;-68
2022/03/25 05:27:42;;;;;;;13.77;7.57;;;;;;;12.36;30.80;96678.31;5114529;28;20038;-68
2022/03/25 05:30:08;;;;;;;13.25;6.75;;;;;;;12.95;29.79;96674.88;5114443;28;20044;-68
2022/03/25 05:32:34;;;;;;;13.43;7.32;;;;;;;13.53;28.94;96677.50;5114487;28;20481;-68
2022/03/25 05:34:59;;;;;;;18.80;7.90;;;;;;;13.97;28.13;96684.13;5114496;28;20051;-67
2022/03/25 05:37:25;;;;;;;17.08;7.65;;;;;;;14.47;28.60;96681.66;5114420;28;20028;-68
2022/03/25 05:39:50;;;;;;;14.50;7.82;;;;;;;14.94;26.60;96675.78;5114170;28;20370;-68
2022/03/25 05:42:16;;;;;;;12.32;7.70;;;;;;;15.41;26.70;96679.41;5114289;27;20028;-68
2022/03/25 05:44:42;;;;;;;14.77;7.47;;;;;;;16.02;25.21;96681.34;5114221;28;20027;-68
2022/03/25 05:47:07;;;;;;;16.02;7.97;;;;;;;16.62;24.22;96679.56;5114250;28;20031;-68
2022/03/25 05:49:34;;;;;;;13.77;7.43;;;;;;;17.05;24.49;96670.81;5114222;28;20047;-68
2022/03/25 05:51:59;;;;;;;12.95;7.70;;;;;;;17.48;24.37;96668.22;5114198;28;20020;-68
2022/03/25 05:54:25;;;;;;;14.70;7.70;;;;;;;18.02;22.76;96672.66;5114107;28;20069;-68
2022/03/25 05:56:50;;;;;;;12.52;8.38;;;;;;;18.63;22.59;96673.09;5113964;28;20020;-68
2022/03/25 05:59:16;;;;;;;15.75;8.02;;;;;;;19.14;22.08;96668.75;5113898;28;20020;-67
2022/03/25 06:01:42;;;;;;;18.50;7.78;;;;;;;19.48;21.23;96673.44;5113434;28;20020;-68
2022/03/25 06:04:07;;;;;;;19.08;9.20;;;;;;;19.86;19.51;96664.47;5114143;28;20470;-68
2022/03/25 06:06:33;;;;;;;21.75;9.25;;;;;;;20.23;18.66;96668.88;5112779;28;20361;-68
2022/03/25 06:08:58;;;;;;;14.13;8.48;;;;;;;20.26;18.65;96673.09;5113789;28;20407;-68
2022/03/25 06:11:24;;;;;;;14.57;8.40;;;;;;;20.51;18.22;96669.44;5113870;28;20074;-68
2022/03/25 06:13:50;;;;;;;16.05;8.90;;;;;;;21.00;18.37;96663.09;5113689;28;20020;-69
2022/03/25 06:16:17;;;;;;;16.77;8.00;;;;;;;21.38;19.53;96672.50;5113730;28;20094;-67
2022/03/25 06:18:42;;;;;;;17.60;8.80;;;;;;;20.64;19.96;96674.63;5113740;28;20160;-68
2022/03/25 06:21:08;;;;;;;15.75;9.68;;;;;;;20.52;19.94;96678.22;5113740;28;20095;-68
2022/03/25 06:23:35;;;;;;;20.85;9.48;;;;;;;20.51;20.11;96679.19;5113681;28;20030;-68
2022/03/25 06:26:05;;;;;;;20.80;9.80;;;;;;;19.75;21.44;96685.66;5113512;28;20040;-67
2022/03/25 06:28:31;;;;;;;14.13;8.70;;;;;;;19.94;21.51;96683.34;5113556;28;20066;-66
2022/03/25 06:30:56;;;;;;;15.90;9.32;;;;;;;19.63;21.64;96676.78;5113641;28;20333;-67
2022/03/25 06:33:22;;;;;;;19.08;9.38;;;;;;;19.82;20.92;96684.25;5113468;28;20022;-69
2022/03/25 06:35:48;;;;;;;14.75;9.52;;;;;;;19.99;20.32;96683.00;5113481;28;20024;-69
2022/03/25 06:38:14;;;;;;;21.00;9.55;;;;;;;20.06;19.43;96684.28;5113593;28;20546;-66
2022/03/25 06:40:40;;;;;;;19.30;9.45;;;;;;;20.47;19.35;96688.38;5113404;28;20496;-69
2022/03/25 06:43:06;;;;;;;38.88;11.38;;;;;;;20.49;19.32;96681.13;5113481;28;20016;-68
2022/03/25 06:45:32;;;;;;;15.15;10.23;;;;;;;20.07;19.11;96693.06;5113406;28;20030;-68
2022/03/25 06:47:58;;;;;;;17.17;9.57;;;;;;;19.86;20.42;96690.19;5113371;28;20027;-66
2022/03/25 06:50:24;;;;;;;13.57;9.88;;;;;;;18.92;20.63;96688.78;5113424;28;20030;-67
2022/03/25 06:52:51;;;;;;;17.13;9.43;;;;;;;18.53;21.11;96691.41;5113337;28;20098;-66
2022/03/25 06:55:17;;;;;;;12.68;9.02;;;;;;;18.45;21.45;96676.03;5113441;28;20024;-66
2022/03/25 06:57:43;;;;;;;16.95;9.35;;;;;;;18.54;21.44;96688.66;5113315;28;20027;-69
2022/03/25 07:00:12;;;;;;;18.05;9.05;;;;;;;18.55;21.24;96682.41;5113320;28;20484;-69
2022/03/25 07:02:39;;;;;;;14.68;8.73;;;;;;;18.42;20.67;96682.41;5113208;28;20035;-67
2022/03/25 07:05:05;;;;;;;17.10;9.52;;;;;;;18.59;22.00;96691.00;5113244;28;20015;-66
2022/03/25 07:07:34;;;;;;;23.30;8.60;;;;;;;18.60;21.98;96682.09;5113249;28;20427;-66
2022/03/25 07:10:00;;;;;;;17.83;8.82;;;;;;;18.59;21.93;96690.13;5113204;28;20027;-66
2022/03/25 07:12:25;;;;;;;15.93;10.20;;;;;;;18.41;21.92;96679.84;5113846;28;20381;-67
2022/03/25 07:14:51;;;;;;;18.27;9.07;;;;;;;18.30;21.80;96677.91;5117101;28;20024;-68
2022/03/25 07:17:16;;;;;;;16.35;8.43;;;;;;;18.33;20.65;96683.00;5117153;28;20031;-68
2022/03/25 07:19:42;;;;;;;14.10;8.82;;;;;;;18.22;22.81;96689.03;5117136;28;20114;-67
2022/03/25 07:22:08;;;;;;;14.55;9.65;;;;;;;17.76;22.01;96688.44;5117184;28;20028;-67
2022/03/25 07:24:33;;;;;;;13.45;8.63;;;;;;;17.81;23.29;96683.72;5116938;28;20028;-69
2022/03/25 07:26:59;;;;;;;19.00;9.48;;;;;;;17.81;23.08;96693.44;5116907;28;20012;-69
2022/03/25 07:29:24;;;;;;;17.30;9.82;;;;;;;17.89;23.07;96696.44;5116955;28;20023;-68
2022/03/25 07:31:50;;;;;;;18.30;9.65;;;;;;;17.66;21.95;96693.47;5116897;28;20053;-66
2022/03/25 07:34:15;;;;;;;18.63;9.38;;;;;;;17.21;23.56;96692.81;5116932;28;20031;-66
2022/03/25 07:36:41;;;;;;;16.10;8.98;;;;;;;17.19;22.93;96695.56;5116632;28;20024;-66
2022/03/25 07:39:07;;;;;;;12.80;9.05;;;;;;;17.10;23.49;96701.41;5116682;27;20024;-66
2022/03/25 07:41:34;;;;;;;24.10;9.23;;;;;;;17.30;22.82;96694.88;5116535;28;20432;-66
2022/03/25 07:43:59;;;;;;;16.25;9.32;;;;;;;17.46;22.81;96696.56;5116751;28;20149;-66
2022/03/25 07:46:25;;;;;;;15.50;8.88;;;;;;;17.23;21.71;96706.78;5116627;28;20049;-69
2022/03/25 07:48:51;;;;;;;18.88;9.50;;;;;;;16.73;22.72;96688.63;5116576;28;20454;-68
2022/03/25 07:51:17;;;;;;;23.67;9.50;;;;;;;16.57;22.90;96691.34;5116632;28;20015;-65
2022/03/25 07:53:43;;;;;;;19.20;8.88;;;;;;;16.71;23.22;96696.66;5116486;28;20469;-68
2022/03/25 07:56:10;;;;;;;17.13;9.48;;;;;;;16.90;23.00;96693.75;5116411;28;20107;-67
2022/03/25 07:58:36;;;;;;;15.38;9.13;;;;;;;16.92;22.17;96699.78;5116273;28;20031;-66
2022/03/25 08:01:02;;;;;;;21.85;9.88;;;;;;;16.70;22.80;96691.47;5116332;28;20412;-68
2022/03/25 08:03:27;;;;;;;21.48;11.85;;;;;;;16.63;23.34;96694.50;5116074;28;20485;-68
2022/03/25 08:05:54;;;;;;;18.23;9.05;;;;;;;16.68;23.30;96696.84;5116290;28;20042;-68
2022/03/25 08:08:20;;;;;;;21.73;9.10;;;;;;;16.80;23.27;96690.81;5116061;28;20034;-68
2022/03/25 08:10:47;;;;;;;12.38;9.07;;;;;;;16.69;23.09;96695.91;5116171;28;20016;-66
2022/03/25 08:13:13;;;;;;;15.70;9.30;;;;;;;16.89;23.31;96692.03;5116121;28;20412;-67
2022/03/25 08:15:38;;;;;;;16.70;9.05;;;;;;;17.14;23.05;96697.63;5115984;28;20020;-66
2022/03/25 08:18:13;;;;;;;18.10;9.27;;;;;;;17.08;22.87;96698.88;5116019;28;20081;-67
2022/03/25 08:20:41;;;;;;;24.42;9.38;;;;;;;16.96;23.43;96704.88;5115962;28;20020;-67
2022/03/25 08:28:48;;;;;;;18.40;9.05;;;;;;;16.96;24.72;96689.03;5116077;28;20034;-67
2022/03/25 08:31:14;;;;;;;19.67;8.90;;;;;;;16.85;23.18;96687.88;5115795;27;20024;-66
2022/03/25 08:33:39;;;;;;;16.98;9.48;;;;;;;16.93;22.64;96680.34;5115629;28;20018;-68
2022/03/25 08:36:05;;;;;;;16.50;8.68;;;;;;;16.92;22.36;96681.28;5115633;27;20469;-67
2022/03/25 08:38:30;;;;;;;14.10;8.52;;;;;;;16.80;23.01;96687.34;5115390;28;20371;-68
2022/03/25 08:40:56;;;;;;;17.10;9.48;;;;;;;17.08;23.63;96683.00;5115222;28;20055;-66
2022/03/25 08:43:22;;;;;;;18.40;9.02;;;;;;;17.08;23.78;96682.16;5115602;28;20055;-67
2022/03/25 08:45:47;;;;;;;17.13;8.90;;;;;;;16.81;22.32;96678.47;5115503;28;20488;-67
2022/03/25 08:48:13;;;;;;;24.52;9.55;;;;;;;16.75;23.99;96687.63;5115372;28;20068;-66
2022/03/25 08:50:39;;;;;;;19.33;8.55;;;;;;;16.78;23.10;96673.38;5115233;28;20063;-68
2022/03/25 08:53:05;;;;;;;18.75;8.70;;;;;;;16.90;23.48;96667.34;5115314;28;20465;-66
2022/03/25 08:55:31;;;;;;;14.38;8.35;;;;;;;16.99;24.35;96683.53;5115221;28;20020;-67
2022/03/25 08:57:57;;;;;;;11.98;8.60;;;;;;;16.97;23.58;96670.44;5115111;28;20057;-66
2022/03/25 09:00:22;;;;;;;14.35;8.90;;;;;;;16.86;22.96;96665.81;5115205;28;20492;-67
2022/03/25 09:02:48;;;;;;;28.88;8.90;;;;;;;16.87;24.65;96674.59;5114977;28;20032;-67
2022/03/25 09:05:15;;;;;;;16.10;8.52;;;;;;;17.04;23.69;96676.19;5115054;28;20019;-67
2022/03/25 09:07:42;;;;;;;15.30;8.90;;;;;;;16.93;23.44;96659.22;5115042;28;20035;-67
2022/03/25 09:10:10;;;;;;;17.80;7.97;;;;;;;16.83;23.66;96673.94;5114857;28;20030;-67
2022/03/25 09:12:36;;;;;;;16.23;9.15;;;;;;;16.79;24.00;96670.63;5113653;28;20416;-66
2022/03/25 09:15:04;;;;;;;17.40;9.77;;;;;;;16.82;22.24;96676.69;5114692;28;20019;-67
2022/03/25 09:17:29;;;;;;;14.93;8.38;;;;;;;16.59;23.52;96665.72;5114625;28;20484;-69
2022/03/25 09:19:56;;;;;;;11.77;8.43;;;;;;;16.34;25.46;96678.59;5114816;28;20100;-68
2022/03/25 09:22:21;;;;;;;15.55;8.90;;;;;;;16.26;24.93;96673.75;5114796;28;20023;-68
2022/03/25 09:24:47;;;;;;;16.25;9.20;;;;;;;16.51;24.65;96671.44;5114686;27;20023;-68
2022/03/25 09:27:13;;;;;;;18.17;8.60;;;;;;;16.58;22.70;96653.47;5114620;28;20396;-66
2022/03/25 09:29:39;;;;;;;17.42;8.43;;;;;;;16.57;23.71;96652.59;5114579;28;20102;-66
2022/03/25 09:32:05;;;;;;;13.20;8.55;;;;;;;16.70;22.88;96654.50;5114396;28;20063;-68
2022/03/25 09:37:15;;;;;;;17.88;8.93;;;;;;;16.83;24.30;96663.38;5113532;28;20081;-68
2022/03/25 09:39:41;;;;;;;16.98;9.15;;;;;;;16.72;23.41;96645.53;5114138;28;20028;-68
2022/03/25 09:42:07;;;;;;;18.60;8.55;;;;;;;16.47;22.37;96662.03;5114270;28;20090;-67
2022/03/25 09:44:34;;;;;;;16.67;9.15;;;;;;;16.41;25.44;96658.78;5114132;28;20027;-67
2022/03/25 09:47:00;;;;;;;12.18;8.10;;;;;;;16.53;25.02;96656.38;5114378;28;20115;-67
2022/03/25 09:49:27;;;;;;;13.23;8.20;;;;;;;16.42;22.72;96652.59;5114279;28;20019;-68
2022/03/25 09:51:52;;;;;;;16.20;8.63;;;;;;;16.30;23.21;96653.31;5114252;28;20027;-68
2022/03/25 09:54:19;;;;;;;17.20;9.13;;;;;;;16.26;24.56;96650.00;5113999;28;20073;-68
2022/03/25 09:56:45;;;;;;;18.13;8.50;;;;;;;16.53;24.68;96636.09;5113997;28;20542;-68
2022/03/25 09:59:17;;;;;;;13.20;8.35;;;;;;;16.43;23.33;96629.66;5113975;28;20020;-68
2022/03/25 10:01:43;;;;;;;16.80;9.38;;;;;;;16.40;23.49;96621.94;5114184;28;20054;-67
2022/03/25 10:04:08;;;;;;;11.38;8.25;;;;;;;16.57;25.21;96615.63;5113985;28;20461;-68
2022/03/25 10:06:47;;;;;;;14.30;8.52;;;;;;;16.85;24.80;96616.56;5113785;28;20024;-68
2022/03/25 10:09:21;;;;;;;15.95;8.27;;;;;;;16.78;23.92;96631.09;5113969;28;20023;-67
2022/03/25 10:11:46;;;;;;;20.58;9.70;;;;;;;16.87;24.01;96633.19;5113828;28;20019;-68
2022/03/25 10:14:23;;;;;;;15.13;9.63;;;;;;;17.15;24.19;96638.53;5113826;28;20019;-68
2022/03/25 10:16:53;;;;;;;13.27;9.18;;;;;;;17.26;23.17;96630.78;5113711;28;20031;-67
2022/03/25 10:19:21;;;;;;;14.88;8.18;;;;;;;17.01;24.95;96627.00;5113580;28;20031;-68
2022/03/25 10:21:59;;;;;;;15.93;10.13;;;;;;;16.73;25.13;96626.09;5113804;28;20048;-67
2022/03/25 10:24:40;;;;;;;17.17;9.05;;;;;;;17.09;23.61;96617.78;5113657;28;20099;-67
2022/03/25 10:27:07;;;;;;;11.75;8.52;;;;;;;17.14;24.22;96626.28;5113615;28;20047;-67
2022/03/25 10:29:35;;;;;;;15.20;9.13;;;;;;;17.07;23.17;96620.56;5113720;28;20023;-68
2022/03/25 10:32:06;;;;;;;15.00;9.10;;;;;;;16.87;22.92;96625.25;5113622;28;20027;-67
2022/03/25 10:34:32;;;;;;;17.00;8.80;;;;;;;16.91;22.68;96626.75;5113698;28;20103;-67
2022/03/25 10:37:03;;;;;;;16.05;9.23;;;;;;;16.86;25.73;96630.63;5113327;28;20431;-67
2022/03/25 10:39:29;;;;;;;14.30;8.98;;;;;;;17.05;23.63;96631.19;5113299;28;20016;-68
2022/03/25 10:42:01;;;;;;;18.38;9.30;;;;;;;17.26;22.71;96635.22;5113476;28;20358;-68
2022/03/25 10:44:38;;;;;;;17.17;9.00;;;;;;;17.34;23.33;96622.34;5113344;28;20380;-67
2022/03/25 10:47:16;;;;;;;15.15;9.70;;;;;;;17.58;23.82;96642.03;5113753;28;20102;-68
2022/03/25 10:49:46;;;;;;;16.38;8.75;;;;;;;17.35;22.49;96631.16;5117694;28;20034;-67
2022/03/25 10:52:27;;;;;;;17.88;8.95;;;;;;;17.00;24.54;96641.19;5117683;28;20027;-68
2022/03/25 10:55:18;;;;;;;15.30;8.73;;;;;;;17.02;23.35;96622.59;5117667;28;20080;-68
2022/03/25 10:57:51;;;;;;;;;;;;;;;16.97;24.41;96624.66;5117788;28;20035;-67
2022/03/25 11:00:17;;;;;;;16.85;9.68;;;;;;;16.72;23.17;96621.78;5117378;28;20409;-67
2022/03/25 11:02:45;;;;;;;17.15;9.30;;;;;;;16.75;23.03;96620.72;5117426;27;20030;-68
2022/03/25 11:05:12;;;;;;;17.30;8.98;;;;;;;16.83;24.13;96617.63;5117380;28;20024;-68
2022/03/25 11:07:41;;;;;;;23.33;9.45;;;;;;;17.07;25.14;96620.56;5117321;28;20046;-68
2022/03/25 11:10:07;;;;;;;13.68;8.77;;;;;;;17.23;23.81;96617.78;5117342;28;20420;-67
2022/03/25 11:12:34;;;;;;;15.57;9.80;;;;;;;17.24;21.91;96613.31;5117316;28;20118;-67
2022/03/25 11:15:01;;;;;;;10.85;8.15;;;;;;;17.26;19.69;96591.16;5117288;28;20024;-67
2022/03/25 11:17:27;;;;;;;14.43;7.72;;;;;;;17.48;21.61;96602.09;5117078;28;20028;-68
2022/03/25 11:19:59;;;;;;;14.63;9.13;;;;;;;17.67;19.63;96602.59;5116984;28;20027;-68
2022/03/25 11:22:26;;;;;;;16.23;8.07;;;;;;;17.87;19.19;96592.50;5117218;28;20028;-66
2022/03/25 11:24:59;;;;;;;14.77;8.45;;;;;;;17.92;18.96;96585.13;5117019;28;20373;-67
2022/03/25 11:27:30;;;;;;;11.57;7.55;;;;;;;18.03;18.88;96587.00;5116969;28;20023;-67
2022/03/25 11:29:57;;;;;;;;;;;;;;;17.94;18.79;96577.91;5117587;28;20020;-66
2022/03/25 11:32:24;;;;;;;15.40;7.88;;;;;;;18.12;19.36;96582.09;5116878;28;19915;-66
2022/03/25 11:34:55;;;;;;;16.73;8.32;;;;;;;18.19;19.02;96581.53;5116807;27;20023;-67
2022/03/25 11:37:28;;;;;;;13.98;8.95;;;;;;;18.23;18.78;96568.09;5116633;28;20026;-67